sensor_id;sensor_type;location;lat;lon;timestamp;P1;durP1;ratioP1;P2;durP2;ratioP2
23632;SDS011;11993;48.748;9.166;2023-11-19T00:00:15;3.47;;;2.75;;
23632;SDS011;11993;48.748;9.166;2023-11-19T00:02:41;5.45;;;3.40;;
23632;SDS011;11993;48.748;9.166;2023-11-19T00:05:07;10.10;;;3.10;;
23632;SDS011;11993;48.748;9.166;2023-11-19T00:07:36;4.32;;;2.60;;
23632;SDS011;11993;48.748;9.166;2023-11-19T00:10:09;2.53;;;2.33;;
23632;SDS011;11993;48.748;9.166;2023-11-19T00:12:39;4.90;;;2.80;;
23632;SDS011;11993;48.748;9.166;2023-11-19T00:15:06;3.80;;;2.60;;
23632;SDS011;11993;48.748;9.166;2023-11-19T00:17:36;5.20;;;2.92;;
23632;SDS011;11993;48.748;9.166;2023-11-19T00:20:03;5.50;;;2.78;;
23632;SDS011;11993;48.748;9.166;2023-11-19T00:22:31;14.65;;;3.90;;
23632;SDS011;11993;48.748;9.166;2023-11-19T00:24:56;6.80;;;3.30;;
23632;SDS011;11993;48.748;9.166;2023-11-19T00:27:22;4.07;;;3.08;;
23632;SDS011;11993;48.748;9.166;2023-11-19T00:29:47;6.65;;;3.85;;
23632;SDS011;11993;48.748;9.166;2023-11-19T00:32:14;5.20;;;3.75;;
23632;SDS011;11993;48.748;9.166;2023-11-19T00:34:40;7.30;;;4.25;;
23632;SDS011;11993;48.748;9.166;2023-11-19T00:37:06;4.88;;;3.80;;
23632;SDS011;11993;48.748;9.166;2023-11-19T00:39:31;5.55;;;3.95;;
23632;SDS011;11993;48.748;9.166;2023-11-19T00:41:57;3.78;;;3.00;;
23632;SDS011;11993;48.748;9.166;2023-11-19T00:44:23;6.32;;;3.65;;
23632;SDS011;11993;48.748;9.166;2023-11-19T00:46:48;5.18;;;3.00;;
23632;SDS011;11993;48.748;9.166;2023-11-19T00:49:14;5.07;;;3.88;;
23632;SDS011;11993;48.748;9.166;2023-11-19T00:51:40;4.85;;;3.85;;
23632;SDS011;11993;48.748;9.166;2023-11-19T00:54:06;3.95;;;2.65;;
23632;SDS011;11993;48.748;9.166;2023-11-19T00:56:31;4.70;;;3.05;;
23632;SDS011;11993;48.748;9.166;2023-11-19T00:58:57;3.10;;;2.55;;
23632;SDS011;11993;48.748;9.166;2023-11-19T01:01:22;4.85;;;3.15;;
23632;SDS011;11993;48.748;9.166;2023-11-19T01:03:48;4.07;;;2.63;;
23632;SDS011;11993;48.748;9.166;2023-11-19T01:06:13;3.40;;;2.38;;
23632;SDS011;11993;48.748;9.166;2023-11-19T01:08:42;5.22;;;2.50;;
23632;SDS011;11993;48.748;9.166;2023-11-19T01:11:11;3.55;;;2.15;;
23632;SDS011;11993;48.748;9.166;2023-11-19T01:13:45;4.15;;;2.30;;
23632;SDS011;11993;48.748;9.166;2023-11-19T01:16:11;2.72;;;1.98;;
23632;SDS011;11993;48.748;9.166;2023-11-19T01:18:38;2.78;;;2.22;;
23632;SDS011;11993;48.748;9.166;2023-11-19T01:21:04;3.72;;;1.90;;
23632;SDS011;11993;48.748;9.166;2023-11-19T01:23:30;2.00;;;1.65;;
23632;SDS011;11993;48.748;9.166;2023-11-19T01:25:56;1.95;;;1.50;;
23632;SDS011;11993;48.748;9.166;2023-11-19T01:28:22;2.63;;;1.20;;
23632;SDS011;11993;48.748;9.166;2023-11-19T01:30:50;1.80;;;1.35;;
23632;SDS011;11993;48.748;9.166;2023-11-19T01:33:16;1.63;;;1.00;;
23632;SDS011;11993;48.748;9.166;2023-11-19T01:35:41;2.35;;;1.13;;
23632;SDS011;11993;48.748;9.166;2023-11-19T01:38:07;1.52;;;0.90;;
23632;SDS011;11993;48.748;9.166;2023-11-19T01:40:36;1.60;;;1.00;;
23632;SDS011;11993;48.748;9.166;2023-11-19T01:43:02;1.25;;;0.80;;
23632;SDS011;11993;48.748;9.166;2023-11-19T01:45:29;2.05;;;0.95;;
23632;SDS011;11993;48.748;9.166;2023-11-19T01:48:00;4.45;;;1.10;;
23632;SDS011;11993;48.748;9.166;2023-11-19T01:50:29;2.15;;;1.10;;
23632;SDS011;11993;48.748;9.166;2023-11-19T01:52:56;0.80;;;0.80;;
23632;SDS011;11993;48.748;9.166;2023-11-19T01:55:25;1.30;;;0.90;;
23632;SDS011;11993;48.748;9.166;2023-11-19T01:57:55;1.85;;;0.77;;
23632;SDS011;11993;48.748;9.166;2023-11-19T02:00:24;0.80;;;0.80;;
23632;SDS011;11993;48.748;9.166;2023-11-19T02:02:50;0.80;;;0.70;;
23632;SDS011;11993;48.748;9.166;2023-11-19T02:05:17;2.08;;;0.60;;
23632;SDS011;11993;48.748;9.166;2023-11-19T02:07:43;0.65;;;0.65;;
23632;SDS011;11993;48.748;9.166;2023-11-19T02:10:09;0.55;;;0.55;;
23632;SDS011;11993;48.748;9.166;2023-11-19T02:12:42;0.60;;;0.60;;
23632;SDS011;11993;48.748;9.166;2023-11-19T02:15:08;0.93;;;0.60;;
23632;SDS011;11993;48.748;9.166;2023-11-19T02:17:34;0.50;;;0.50;;
23632;SDS011;11993;48.748;9.166;2023-11-19T02:20:02;0.40;;;0.40;;
23632;SDS011;11993;48.748;9.166;2023-11-19T02:22:31;0.70;;;0.47;;
23632;SDS011;11993;48.748;9.166;2023-11-19T02:24:59;0.70;;;0.60;;
23632;SDS011;11993;48.748;9.166;2023-11-19T02:30:22;0.73;;;0.60;;
23632;SDS011;11993;48.748;9.166;2023-11-19T02:32:51;0.50;;;0.50;;
23632;SDS011;11993;48.748;9.166;2023-11-19T02:35:22;0.47;;;0.47;;
23632;SDS011;11993;48.748;9.166;2023-11-19T02:37:48;0.77;;;0.50;;
23632;SDS011;11993;48.748;9.166;2023-11-19T02:40:14;0.45;;;0.40;;
23632;SDS011;11993;48.748;9.166;2023-11-19T02:42:40;1.77;;;0.47;;
23632;SDS011;11993;48.748;9.166;2023-11-19T02:45:06;0.55;;;0.52;;
23632;SDS011;11993;48.748;9.166;2023-11-19T02:47:32;1.60;;;0.50;;
23632;SDS011;11993;48.748;9.166;2023-11-19T02:49:58;0.50;;;0.50;;
23632;SDS011;11993;48.748;9.166;2023-11-19T02:52:24;0.90;;;0.68;;
23632;SDS011;11993;48.748;9.166;2023-11-19T02:54:50;0.57;;;0.50;;
23632;SDS011;11993;48.748;9.166;2023-11-19T02:57:16;0.52;;;0.52;;
23632;SDS011;11993;48.748;9.166;2023-11-19T02:59:44;1.02;;;0.55;;
23632;SDS011;11993;48.748;9.166;2023-11-19T03:02:10;0.63;;;0.40;;
23632;SDS011;11993;48.748;9.166;2023-11-19T03:04:41;0.32;;;0.32;;
23632;SDS011;11993;48.748;9.166;2023-11-19T03:07:08;0.50;;;0.40;;
23632;SDS011;11993;48.748;9.166;2023-11-19T03:09:34;1.70;;;0.50;;
23632;SDS011;11993;48.748;9.166;2023-11-19T03:12:00;0.50;;;0.50;;
23632;SDS011;11993;48.748;9.166;2023-11-19T03:14:26;0.30;;;0.30;;
23632;SDS011;11993;48.748;9.166;2023-11-19T03:16:52;0.60;;;0.60;;
23632;SDS011;11993;48.748;9.166;2023-11-19T03:19:18;0.57;;;0.50;;
23632;SDS011;11993;48.748;9.166;2023-11-19T03:21:44;2.65;;;0.50;;
23632;SDS011;11993;48.748;9.166;2023-11-19T03:24:09;1.38;;;0.30;;
23632;SDS011;11993;48.748;9.166;2023-11-19T03:26:37;0.45;;;0.45;;
23632;SDS011;11993;48.748;9.166;2023-11-19T03:29:03;0.50;;;0.50;;
23632;SDS011;11993;48.748;9.166;2023-11-19T03:31:28;0.40;;;0.40;;
23632;SDS011;11993;48.748;9.166;2023-11-19T03:33:54;3.15;;;0.60;;
23632;SDS011;11993;48.748;9.166;2023-11-19T03:36:20;0.50;;;0.50;;
23632;SDS011;11993;48.748;9.166;2023-11-19T03:38:45;1.02;;;0.60;;
23632;SDS011;11993;48.748;9.166;2023-11-19T03:41:12;0.88;;;0.50;;
23632;SDS011;11993;48.748;9.166;2023-11-19T03:43:38;0.40;;;0.40;;
23632;SDS011;11993;48.748;9.166;2023-11-19T03:46:04;5.75;;;0.57;;
23632;SDS011;11993;48.748;9.166;2023-11-19T03:48:30;0.45;;;0.45;;
23632;SDS011;11993;48.748;9.166;2023-11-19T03:50:56;0.70;;;0.60;;
23632;SDS011;11993;48.748;9.166;2023-11-19T03:53:21;0.40;;;0.40;;
23632;SDS011;11993;48.748;9.166;2023-11-19T03:55:49;0.55;;;0.30;;
23632;SDS011;11993;48.748;9.166;2023-11-19T03:58:15;2.45;;;0.52;;
23632;SDS011;11993;48.748;9.166;2023-11-19T04:00:40;0.60;;;0.60;;
23632;SDS011;11993;48.748;9.166;2023-11-19T04:03:06;0.70;;;0.47;;
23632;SDS011;11993;48.748;9.166;2023-11-19T04:05:31;0.40;;;0.40;;
23632;SDS011;11993;48.748;9.166;2023-11-19T04:07:57;0.85;;;0.60;;
23632;SDS011;11993;48.748;9.166;2023-11-19T04:10:22;0.47;;;0.40;;
23632;SDS011;11993;48.748;9.166;2023-11-19T04:12:48;0.68;;;0.50;;
23632;SDS011;11993;48.748;9.166;2023-11-19T04:15:14;0.30;;;0.30;;
23632;SDS011;11993;48.748;9.166;2023-11-19T04:17:39;0.43;;;0.40;;
23632;SDS011;11993;48.748;9.166;2023-11-19T04:20:05;0.47;;;0.47;;
23632;SDS011;11993;48.748;9.166;2023-11-19T04:22:31;0.35;;;0.35;;
23632;SDS011;11993;48.748;9.166;2023-11-19T04:24:56;1.48;;;0.40;;
23632;SDS011;11993;48.748;9.166;2023-11-19T04:27:22;0.43;;;0.35;;
23632;SDS011;11993;48.748;9.166;2023-11-19T04:29:48;1.42;;;0.60;;
23632;SDS011;11993;48.748;9.166;2023-11-19T04:32:15;0.40;;;0.40;;
23632;SDS011;11993;48.748;9.166;2023-11-19T04:34:41;0.43;;;0.40;;
23632;SDS011;11993;48.748;9.166;2023-11-19T04:37:06;0.68;;;0.20;;
23632;SDS011;11993;48.748;9.166;2023-11-19T04:39:32;0.40;;;0.30;;
23632;SDS011;11993;48.748;9.166;2023-11-19T04:41:57;0.45;;;0.35;;
23632;SDS011;11993;48.748;9.166;2023-11-19T04:44:24;0.40;;;0.40;;
23632;SDS011;11993;48.748;9.166;2023-11-19T04:46:50;0.30;;;0.30;;
23632;SDS011;11993;48.748;9.166;2023-11-19T04:49:15;0.28;;;0.28;;
23632;SDS011;11993;48.748;9.166;2023-11-19T04:51:42;0.47;;;0.47;;
23632;SDS011;11993;48.748;9.166;2023-11-19T04:54:09;0.98;;;0.50;;
23632;SDS011;11993;48.748;9.166;2023-11-19T04:56:37;0.50;;;0.30;;
23632;SDS011;11993;48.748;9.166;2023-11-19T04:59:03;0.30;;;0.30;;
23632;SDS011;11993;48.748;9.166;2023-11-19T05:01:30;1.10;;;0.95;;
23632;SDS011;11993;48.748;9.166;2023-11-19T05:03:56;0.35;;;0.35;;
23632;SDS011;11993;48.748;9.166;2023-11-19T05:06:28;1.48;;;0.40;;
23632;SDS011;11993;48.748;9.166;2023-11-19T05:08:54;0.57;;;0.40;;
23632;SDS011;11993;48.748;9.166;2023-11-19T05:11:21;0.30;;;0.30;;
23632;SDS011;11993;48.748;9.166;2023-11-19T05:13:47;1.33;;;0.45;;
23632;SDS011;11993;48.748;9.166;2023-11-19T05:16:12;2.55;;;0.60;;
23632;SDS011;11993;48.748;9.166;2023-11-19T05:18:41;0.47;;;0.47;;
23632;SDS011;11993;48.748;9.166;2023-11-19T05:21:07;1.63;;;0.50;;
23632;SDS011;11993;48.748;9.166;2023-11-19T05:23:33;2.08;;;0.40;;
23632;SDS011;11993;48.748;9.166;2023-11-19T05:25:59;0.60;;;0.40;;
23632;SDS011;11993;48.748;9.166;2023-11-19T05:28:28;2.25;;;0.60;;
23632;SDS011;11993;48.748;9.166;2023-11-19T05:30:54;0.38;;;0.38;;
23632;SDS011;11993;48.748;9.166;2023-11-19T05:33:20;1.35;;;0.50;;
23632;SDS011;11993;48.748;9.166;2023-11-19T05:35:46;0.65;;;0.47;;
23632;SDS011;11993;48.748;9.166;2023-11-19T05:38:11;1.17;;;0.60;;
23632;SDS011;11993;48.748;9.166;2023-11-19T05:40:37;1.25;;;0.40;;
23632;SDS011;11993;48.748;9.166;2023-11-19T05:43:04;0.50;;;0.50;;
23632;SDS011;11993;48.748;9.166;2023-11-19T05:45:30;0.30;;;0.30;;
23632;SDS011;11993;48.748;9.166;2023-11-19T05:47:57;2.65;;;0.52;;
23632;SDS011;11993;48.748;9.166;2023-11-19T05:50:22;0.85;;;0.50;;
23632;SDS011;11993;48.748;9.166;2023-11-19T05:52:48;0.30;;;0.30;;
23632;SDS011;11993;48.748;9.166;2023-11-19T05:55:14;0.52;;;0.50;;
23632;SDS011;11993;48.748;9.166;2023-11-19T05:57:40;0.50;;;0.50;;
23632;SDS011;11993;48.748;9.166;2023-11-19T06:00:06;0.40;;;0.40;;
23632;SDS011;11993;48.748;9.166;2023-11-19T06:02:33;3.65;;;0.60;;
23632;SDS011;11993;48.748;9.166;2023-11-19T06:04:59;1.00;;;0.75;;
23632;SDS011;11993;48.748;9.166;2023-11-19T06:07:26;2.38;;;0.43;;
23632;SDS011;11993;48.748;9.166;2023-11-19T06:09:51;0.68;;;0.50;;
23632;SDS011;11993;48.748;9.166;2023-11-19T06:12:17;1.10;;;0.60;;
23632;SDS011;11993;48.748;9.166;2023-11-19T06:14:43;4.30;;;0.70;;
23632;SDS011;11993;48.748;9.166;2023-11-19T06:17:08;0.40;;;0.40;;
23632;SDS011;11993;48.748;9.166;2023-11-19T06:19:36;0.90;;;0.40;;
23632;SDS011;11993;48.748;9.166;2023-11-19T06:22:02;0.60;;;0.60;;
23632;SDS011;11993;48.748;9.166;2023-11-19T06:24:28;0.47;;;0.47;;
23632;SDS011;11993;48.748;9.166;2023-11-19T06:26:54;0.50;;;0.50;;
23632;SDS011;11993;48.748;9.166;2023-11-19T06:29:20;0.60;;;0.40;;
23632;SDS011;11993;48.748;9.166;2023-11-19T06:31:46;2.83;;;0.50;;
23632;SDS011;11993;48.748;9.166;2023-11-19T06:34:14;1.40;;;0.70;;
23632;SDS011;11993;48.748;9.166;2023-11-19T06:36:40;0.75;;;0.60;;
23632;SDS011;11993;48.748;9.166;2023-11-19T06:39:08;0.55;;;0.45;;
23632;SDS011;11993;48.748;9.166;2023-11-19T06:41:34;3.05;;;0.70;;
23632;SDS011;11993;48.748;9.166;2023-11-19T06:43:59;0.60;;;0.60;;
23632;SDS011;11993;48.748;9.166;2023-11-19T06:46:25;1.20;;;0.55;;
23632;SDS011;11993;48.748;9.166;2023-11-19T06:48:50;0.60;;;0.60;;
23632;SDS011;11993;48.748;9.166;2023-11-19T06:51:16;0.50;;;0.50;;
23632;SDS011;11993;48.748;9.166;2023-11-19T06:53:45;1.08;;;0.70;;
23632;SDS011;11993;48.748;9.166;2023-11-19T06:56:23;3.47;;;0.60;;
23632;SDS011;11993;48.748;9.166;2023-11-19T06:58:49;4.00;;;0.80;;
23632;SDS011;11993;48.748;9.166;2023-11-19T07:01:16;0.80;;;0.60;;
23632;SDS011;11993;48.748;9.166;2023-11-19T07:03:46;0.70;;;0.70;;
23632;SDS011;11993;48.748;9.166;2023-11-19T07:06:13;0.50;;;0.50;;
23632;SDS011;11993;48.748;9.166;2023-11-19T07:08:39;9.43;;;0.90;;
23632;SDS011;11993;48.748;9.166;2023-11-19T07:11:11;0.50;;;0.50;;
23632;SDS011;11993;48.748;9.166;2023-11-19T07:13:37;3.00;;;0.63;;
23632;SDS011;11993;48.748;9.166;2023-11-19T07:16:02;0.60;;;0.60;;
23632;SDS011;11993;48.748;9.166;2023-11-19T07:18:28;0.40;;;0.40;;
23632;SDS011;11993;48.748;9.166;2023-11-19T07:20:54;0.88;;;0.70;;
23632;SDS011;11993;48.748;9.166;2023-11-19T07:23:20;2.70;;;0.70;;
23632;SDS011;11993;48.748;9.166;2023-11-19T07:25:46;1.52;;;1.30;;
23632;SDS011;11993;48.748;9.166;2023-11-19T07:28:13;2.25;;;1.20;;
23632;SDS011;11993;48.748;9.166;2023-11-19T07:30:39;3.03;;;0.70;;
23632;SDS011;11993;48.748;9.166;2023-11-19T07:33:05;0.98;;;0.80;;
23632;SDS011;11993;48.748;9.166;2023-11-19T07:35:31;1.65;;;0.77;;
23632;SDS011;11993;48.748;9.166;2023-11-19T07:37:57;3.58;;;0.90;;
23632;SDS011;11993;48.748;9.166;2023-11-19T07:40:23;0.75;;;0.70;;
23632;SDS011;11993;48.748;9.166;2023-11-19T07:42:49;0.82;;;0.80;;
23632;SDS011;11993;48.748;9.166;2023-11-19T07:45:15;1.30;;;0.70;;
23632;SDS011;11993;48.748;9.166;2023-11-19T07:47:41;3.03;;;0.90;;
23632;SDS011;11993;48.748;9.166;2023-11-19T07:50:09;4.93;;;1.10;;
23632;SDS011;11993;48.748;9.166;2023-11-19T07:52:36;0.70;;;0.63;;
23632;SDS011;11993;48.748;9.166;2023-11-19T07:55:02;1.27;;;0.90;;
23632;SDS011;11993;48.748;9.166;2023-11-19T07:57:28;5.45;;;1.00;;
23632;SDS011;11993;48.748;9.166;2023-11-19T07:59:56;4.57;;;1.27;;
23632;SDS011;11993;48.748;9.166;2023-11-19T08:02:21;0.93;;;0.77;;
23632;SDS011;11993;48.748;9.166;2023-11-19T08:04:48;2.67;;;0.60;;
23632;SDS011;11993;48.748;9.166;2023-11-19T08:07:17;0.70;;;0.70;;
23632;SDS011;11993;48.748;9.166;2023-11-19T08:09:44;1.85;;;0.80;;
23632;SDS011;11993;48.748;9.166;2023-11-19T08:12:09;2.22;;;1.20;;
23632;SDS011;11993;48.748;9.166;2023-11-19T08:14:35;0.80;;;0.65;;
23632;SDS011;11993;48.748;9.166;2023-11-19T08:17:01;1.45;;;1.00;;
23632;SDS011;11993;48.748;9.166;2023-11-19T08:19:28;1.05;;;0.90;;
23632;SDS011;11993;48.748;9.166;2023-11-19T08:21:53;1.38;;;0.80;;
23632;SDS011;11993;48.748;9.166;2023-11-19T08:24:19;2.30;;;0.70;;
23632;SDS011;11993;48.748;9.166;2023-11-19T08:26:44;1.75;;;0.70;;
23632;SDS011;11993;48.748;9.166;2023-11-19T08:29:10;7.78;;;0.70;;
23632;SDS011;11993;48.748;9.166;2023-11-19T08:31:35;1.33;;;0.70;;
23632;SDS011;11993;48.748;9.166;2023-11-19T08:34:01;2.30;;;0.38;;
23632;SDS011;11993;48.748;9.166;2023-11-19T08:36:26;1.80;;;0.75;;
23632;SDS011;11993;48.748;9.166;2023-11-19T08:38:53;1.27;;;0.70;;
23632;SDS011;11993;48.748;9.166;2023-11-19T08:41:19;0.88;;;0.60;;
23632;SDS011;11993;48.748;9.166;2023-11-19T08:43:45;0.65;;;0.60;;
23632;SDS011;11993;48.748;9.166;2023-11-19T08:46:10;1.02;;;0.50;;
23632;SDS011;11993;48.748;9.166;2023-11-19T08:48:36;1.40;;;0.88;;
23632;SDS011;11993;48.748;9.166;2023-11-19T08:51:03;1.02;;;0.65;;
23632;SDS011;11993;48.748;9.166;2023-11-19T08:53:29;0.85;;;0.75;;
23632;SDS011;11993;48.748;9.166;2023-11-19T08:55:55;1.65;;;0.80;;
23632;SDS011;11993;48.748;9.166;2023-11-19T08:58:20;0.93;;;0.63;;
23632;SDS011;11993;48.748;9.166;2023-11-19T09:00:46;3.63;;;1.25;;
23632;SDS011;11993;48.748;9.166;2023-11-19T09:03:12;2.63;;;0.63;;
23632;SDS011;11993;48.748;9.166;2023-11-19T09:05:37;0.80;;;0.60;;
23632;SDS011;11993;48.748;9.166;2023-11-19T09:08:03;0.60;;;0.60;;
23632;SDS011;11993;48.748;9.166;2023-11-19T09:10:29;3.88;;;0.75;;
23632;SDS011;11993;48.748;9.166;2023-11-19T09:12:55;0.68;;;0.57;;
23632;SDS011;11993;48.748;9.166;2023-11-19T09:15:20;0.75;;;0.63;;
23632;SDS011;11993;48.748;9.166;2023-11-19T09:17:46;1.40;;;0.98;;
23632;SDS011;11993;48.748;9.166;2023-11-19T09:20:11;0.75;;;0.60;;
23632;SDS011;11993;48.748;9.166;2023-11-19T09:22:42;0.90;;;0.70;;
23632;SDS011;11993;48.748;9.166;2023-11-19T09:25:08;0.88;;;0.70;;
23632;SDS011;11993;48.748;9.166;2023-11-19T09:27:34;2.20;;;0.77;;
23632;SDS011;11993;48.748;9.166;2023-11-19T09:30:00;3.13;;;0.88;;
23632;SDS011;11993;48.748;9.166;2023-11-19T09:32:25;2.42;;;0.80;;
23632;SDS011;11993;48.748;9.166;2023-11-19T09:34:51;6.88;;;0.75;;
23632;SDS011;11993;48.748;9.166;2023-11-19T09:37:16;2.00;;;0.70;;
23632;SDS011;11993;48.748;9.166;2023-11-19T09:39:42;1.52;;;0.63;;
23632;SDS011;11993;48.748;9.166;2023-11-19T09:42:09;0.90;;;0.75;;
23632;SDS011;11993;48.748;9.166;2023-11-19T09:44:35;4.00;;;0.77;;
23632;SDS011;11993;48.748;9.166;2023-11-19T09:47:03;1.20;;;0.70;;
23632;SDS011;11993;48.748;9.166;2023-11-19T09:49:30;1.58;;;1.13;;
23632;SDS011;11993;48.748;9.166;2023-11-19T09:51:56;1.90;;;0.80;;
23632;SDS011;11993;48.748;9.166;2023-11-19T09:54:22;2.65;;;1.02;;
23632;SDS011;11993;48.748;9.166;2023-11-19T09:56:47;1.00;;;0.68;;
23632;SDS011;11993;48.748;9.166;2023-11-19T09:59:13;1.42;;;0.68;;
23632;SDS011;11993;48.748;9.166;2023-11-19T10:01:39;1.58;;;0.90;;
23632;SDS011;11993;48.748;9.166;2023-11-19T10:04:05;1.23;;;0.60;;
23632;SDS011;11993;48.748;9.166;2023-11-19T10:06:32;0.73;;;0.50;;
23632;SDS011;11993;48.748;9.166;2023-11-19T10:08:57;2.05;;;0.80;;
23632;SDS011;11993;48.748;9.166;2023-11-19T10:11:24;1.10;;;0.80;;
23632;SDS011;11993;48.748;9.166;2023-11-19T10:13:50;3.35;;;0.70;;
23632;SDS011;11993;48.748;9.166;2023-11-19T10:16:18;4.10;;;1.25;;
23632;SDS011;11993;48.748;9.166;2023-11-19T10:18:47;1.40;;;0.57;;
23632;SDS011;11993;48.748;9.166;2023-11-19T10:21:15;0.73;;;0.70;;
23632;SDS011;11993;48.748;9.166;2023-11-19T10:23:53;0.60;;;0.60;;
23632;SDS011;11993;48.748;9.166;2023-11-19T10:26:21;1.88;;;0.80;;
23632;SDS011;11993;48.748;9.166;2023-11-19T10:28:47;1.02;;;0.73;;
23632;SDS011;11993;48.748;9.166;2023-11-19T10:31:14;1.55;;;0.80;;
23632;SDS011;11993;48.748;9.166;2023-11-19T10:33:40;1.45;;;0.57;;
23632;SDS011;11993;48.748;9.166;2023-11-19T10:36:05;2.17;;;0.68;;
23632;SDS011;11993;48.748;9.166;2023-11-19T10:38:31;5.45;;;3.95;;
23632;SDS011;11993;48.748;9.166;2023-11-19T10:40:58;2.75;;;1.15;;
23632;SDS011;11993;48.748;9.166;2023-11-19T10:43:24;4.32;;;1.10;;
23632;SDS011;11993;48.748;9.166;2023-11-19T10:45:50;0.60;;;0.60;;
23632;SDS011;11993;48.748;9.166;2023-11-19T10:48:16;4.10;;;0.90;;
23632;SDS011;11993;48.748;9.166;2023-11-19T10:50:42;1.00;;;0.65;;
23632;SDS011;11993;48.748;9.166;2023-11-19T10:53:10;0.73;;;0.60;;
23632;SDS011;11993;48.748;9.166;2023-11-19T10:55:40;1.70;;;0.60;;
23632;SDS011;11993;48.748;9.166;2023-11-19T10:58:09;0.95;;;0.52;;
23632;SDS011;11993;48.748;9.166;2023-11-19T11:03:20;3.25;;;0.57;;
23632;SDS011;11993;48.748;9.166;2023-11-19T11:05:50;0.70;;;0.50;;
23632;SDS011;11993;48.748;9.166;2023-11-19T11:08:17;0.85;;;0.50;;
23632;SDS011;11993;48.748;9.166;2023-11-19T11:10:56;0.70;;;0.60;;
23632;SDS011;11993;48.748;9.166;2023-11-19T11:13:25;1.50;;;0.50;;
23632;SDS011;11993;48.748;9.166;2023-11-19T11:15:55;2.80;;;0.70;;
23632;SDS011;11993;48.748;9.166;2023-11-19T11:18:24;2.13;;;0.60;;
23632;SDS011;11993;48.748;9.166;2023-11-19T11:20:51;3.22;;;0.82;;
23632;SDS011;11993;48.748;9.166;2023-11-19T11:23:28;2.03;;;0.82;;
23632;SDS011;11993;48.748;9.166;2023-11-19T11:29:05;1.55;;;0.50;;
23632;SDS011;11993;48.748;9.166;2023-11-19T11:31:59;1.15;;;0.65;;
23632;SDS011;11993;48.748;9.166;2023-11-19T11:39:34;9.00;;;1.15;;
23632;SDS011;11993;48.748;9.166;2023-11-19T11:45:03;2.28;;;0.50;;
23632;SDS011;11993;48.748;9.166;2023-11-19T11:50:14;3.50;;;0.90;;
23632;SDS011;11993;48.748;9.166;2023-11-19T11:55:28;3.70;;;2.72;;
23632;SDS011;11993;48.748;9.166;2023-11-19T11:58:01;1.83;;;0.80;;
23632;SDS011;11993;48.748;9.166;2023-11-19T12:00:31;2.42;;;0.65;;
23632;SDS011;11993;48.748;9.166;2023-11-19T12:03:01;1.70;;;0.63;;
23632;SDS011;11993;48.748;9.166;2023-11-19T12:05:27;1.02;;;0.80;;
23632;SDS011;11993;48.748;9.166;2023-11-19T12:08:03;1.65;;;0.80;;
23632;SDS011;11993;48.748;9.166;2023-11-19T12:10:32;2.67;;;0.82;;
23632;SDS011;11993;48.748;9.166;2023-11-19T12:13:02;2.20;;;0.77;;
23632;SDS011;11993;48.748;9.166;2023-11-19T12:15:32;0.98;;;0.60;;
23632;SDS011;11993;48.748;9.166;2023-11-19T12:17:58;2.35;;;0.95;;
23632;SDS011;11993;48.748;9.166;2023-11-19T12:20:24;5.43;;;0.60;;
23632;SDS011;11993;48.748;9.166;2023-11-19T12:22:50;3.22;;;0.90;;
23632;SDS011;11993;48.748;9.166;2023-11-19T12:25:17;2.25;;;0.70;;
23632;SDS011;11993;48.748;9.166;2023-11-19T12:27:45;1.27;;;0.77;;
23632;SDS011;11993;48.748;9.166;2023-11-19T12:30:12;1.52;;;0.70;;
23632;SDS011;11993;48.748;9.166;2023-11-19T12:32:41;4.07;;;0.75;;
23632;SDS011;11993;48.748;9.166;2023-11-19T12:35:08;1.13;;;0.60;;
23632;SDS011;11993;48.748;9.166;2023-11-19T12:40:14;1.20;;;0.50;;
23632;SDS011;11993;48.748;9.166;2023-11-19T12:42:47;1.00;;;0.60;;
23632;SDS011;11993;48.748;9.166;2023-11-19T12:45:13;10.50;;;6.43;;
23632;SDS011;11993;48.748;9.166;2023-11-19T12:47:41;3.60;;;1.10;;
23632;SDS011;11993;48.748;9.166;2023-11-19T12:50:07;4.22;;;1.10;;
23632;SDS011;11993;48.748;9.166;2023-11-19T12:52:34;1.98;;;0.77;;
23632;SDS011;11993;48.748;9.166;2023-11-19T12:55:00;1.60;;;0.80;;
23632;SDS011;11993;48.748;9.166;2023-11-19T12:57:37;1.67;;;0.60;;
23632;SDS011;11993;48.748;9.166;2023-11-19T13:00:04;1.48;;;0.65;;
23632;SDS011;11993;48.748;9.166;2023-11-19T13:08:01;1.25;;;0.77;;
23632;SDS011;11993;48.748;9.166;2023-11-19T13:10:52;4.18;;;0.70;;
23632;SDS011;11993;48.748;9.166;2023-11-19T13:13:18;1.67;;;0.60;;
23632;SDS011;11993;48.748;9.166;2023-11-19T13:15:44;2.20;;;0.75;;
23632;SDS011;11993;48.748;9.166;2023-11-19T13:18:10;1.77;;;0.70;;
23632;SDS011;11993;48.748;9.166;2023-11-19T13:20:36;0.90;;;0.55;;
23632;SDS011;11993;48.748;9.166;2023-11-19T13:23:04;2.33;;;0.70;;
23632;SDS011;11993;48.748;9.166;2023-11-19T13:25:31;1.52;;;0.80;;
23632;SDS011;11993;48.748;9.166;2023-11-19T13:27:57;7.30;;;1.77;;
23632;SDS011;11993;48.748;9.166;2023-11-19T13:30:23;2.63;;;0.80;;
23632;SDS011;11993;48.748;9.166;2023-11-19T13:32:50;3.60;;;0.77;;
23632;SDS011;11993;48.748;9.166;2023-11-19T13:35:16;2.72;;;1.02;;
23632;SDS011;11993;48.748;9.166;2023-11-19T13:37:43;1.55;;;0.80;;
23632;SDS011;11993;48.748;9.166;2023-11-19T13:40:11;1.80;;;0.70;;
23632;SDS011;11993;48.748;9.166;2023-11-19T13:42:43;2.05;;;1.20;;
23632;SDS011;11993;48.748;9.166;2023-11-19T13:45:09;1.40;;;0.60;;
23632;SDS011;11993;48.748;9.166;2023-11-19T13:47:39;8.05;;;5.63;;
23632;SDS011;11993;48.748;9.166;2023-11-19T13:50:15;4.70;;;0.98;;
23632;SDS011;11993;48.748;9.166;2023-11-19T13:52:42;3.20;;;0.98;;
23632;SDS011;11993;48.748;9.166;2023-11-19T13:55:10;3.72;;;1.08;;
23632;SDS011;11993;48.748;9.166;2023-11-19T13:57:36;1.40;;;0.60;;
23632;SDS011;11993;48.748;9.166;2023-11-19T14:00:03;1.05;;;0.47;;
23632;SDS011;11993;48.748;9.166;2023-11-19T14:02:40;4.47;;;1.00;;
23632;SDS011;11993;48.748;9.166;2023-11-19T14:05:07;2.45;;;0.60;;
23632;SDS011;11993;48.748;9.166;2023-11-19T14:07:33;2.75;;;0.57;;
23632;SDS011;11993;48.748;9.166;2023-11-19T14:09:59;1.65;;;0.98;;
23632;SDS011;11993;48.748;9.166;2023-11-19T14:12:24;1.52;;;0.88;;
23632;SDS011;11993;48.748;9.166;2023-11-19T14:14:53;1.48;;;0.80;;
23632;SDS011;11993;48.748;9.166;2023-11-19T14:17:19;3.58;;;0.63;;
23632;SDS011;11993;48.748;9.166;2023-11-19T14:19:45;1.45;;;0.82;;
23632;SDS011;11993;48.748;9.166;2023-11-19T14:22:11;1.52;;;0.80;;
23632;SDS011;11993;48.748;9.166;2023-11-19T14:24:37;2.03;;;1.38;;
23632;SDS011;11993;48.748;9.166;2023-11-19T14:27:02;2.50;;;1.20;;
23632;SDS011;11993;48.748;9.166;2023-11-19T14:29:28;6.10;;;1.80;;
23632;SDS011;11993;48.748;9.166;2023-11-19T14:31:55;11.93;;;5.85;;
23632;SDS011;11993;48.748;9.166;2023-11-19T14:34:21;2.38;;;1.08;;
23632;SDS011;11993;48.748;9.166;2023-11-19T14:36:47;1.33;;;0.77;;
23632;SDS011;11993;48.748;9.166;2023-11-19T14:39:12;2.28;;;0.70;;
23632;SDS011;11993;48.748;9.166;2023-11-19T14:41:38;2.47;;;0.70;;
23632;SDS011;11993;48.748;9.166;2023-11-19T14:44:04;1.30;;;0.60;;
23632;SDS011;11993;48.748;9.166;2023-11-19T14:46:30;0.60;;;0.50;;
23632;SDS011;11993;48.748;9.166;2023-11-19T14:48:56;0.80;;;0.60;;
23632;SDS011;11993;48.748;9.166;2023-11-19T14:51:21;0.95;;;0.50;;
23632;SDS011;11993;48.748;9.166;2023-11-19T14:53:47;1.90;;;0.70;;
23632;SDS011;11993;48.748;9.166;2023-11-19T14:56:12;3.28;;;0.82;;
23632;SDS011;11993;48.748;9.166;2023-11-19T14:58:38;2.95;;;0.80;;
23632;SDS011;11993;48.748;9.166;2023-11-19T15:01:04;1.73;;;0.95;;
23632;SDS011;11993;48.748;9.166;2023-11-19T15:03:30;1.85;;;0.77;;
23632;SDS011;11993;48.748;9.166;2023-11-19T15:05:56;3.55;;;0.70;;
23632;SDS011;11993;48.748;9.166;2023-11-19T15:08:22;2.97;;;0.63;;
23632;SDS011;11993;48.748;9.166;2023-11-19T15:10:47;0.95;;;0.60;;
23632;SDS011;11993;48.748;9.166;2023-11-19T15:13:13;3.80;;;0.80;;
23632;SDS011;11993;48.748;9.166;2023-11-19T15:15:39;1.13;;;0.65;;